createdAt,value
2023-03-16T00:00:27.144Z,5.95
2023-03-16T00:01:29.596Z,6.23
2023-03-16T00:02:31.927Z,6.13
2023-03-16T00:03:35.206Z,6.55
2023-03-16T00:04:40.373Z,6.25
2023-03-16T00:05:46.550Z,6.02
2023-03-16T00:06:48.879Z,5.80
2023-03-16T00:07:51.295Z,6.42
2023-03-16T00:08:58.961Z,6.32
2023-03-16T00:10:01.619Z,6.13
2023-03-16T00:11:04.010Z,5.55
2023-03-16T00:12:08.330Z,5.50
2023-03-16T00:13:12.429Z,5.50
2023-03-16T00:14:14.798Z,5.95
2023-03-16T00:15:17.162Z,5.88
2023-03-16T00:16:19.580Z,5.87
2023-03-16T00:17:21.974Z,5.75
2023-03-16T00:18:28.572Z,5.95
2023-03-16T00:19:35.280Z,5.75
2023-03-16T00:20:37.678Z,6.13
2023-03-16T00:21:40.041Z,5.85
2023-03-16T00:22:42.498Z,5.75
2023-03-16T00:23:44.853Z,5.58
2023-03-16T00:24:47.243Z,6.23
2023-03-16T00:25:49.593Z,5.93
2023-03-16T00:26:54.955Z,6.05
2023-03-16T00:27:57.376Z,5.85
2023-03-16T00:28:59.842Z,6.02
2023-03-16T00:30:03.432Z,6.17
2023-03-16T00:31:08.214Z,6.18
2023-03-16T00:32:11.813Z,6.12
2023-03-16T00:33:14.186Z,5.80
2023-03-16T00:34:16.617Z,6.08
2023-03-16T00:35:19.001Z,6.45
2023-03-16T00:36:22.831Z,6.07
2023-03-16T00:37:26.999Z,6.30
2023-03-16T00:38:34.963Z,6.52
2023-03-16T00:39:37.340Z,6.48
2023-03-16T00:40:40.368Z,6.30
2023-03-16T00:41:43.093Z,6.53
2023-03-16T00:42:45.412Z,6.05
2023-03-16T00:43:49.044Z,6.22
2023-03-16T00:44:57.131Z,6.07
2023-03-16T00:46:06.821Z,6.07
2023-03-16T00:47:10.042Z,6.68
2023-03-16T00:48:12.437Z,6.25
2023-03-16T00:49:14.766Z,6.13
2023-03-16T00:50:17.093Z,6.28
2023-03-16T00:51:19.917Z,5.93
2023-03-16T00:52:23.617Z,6.03
2023-03-16T00:53:26.426Z,6.10
2023-03-16T00:54:29.498Z,6.62
2023-03-16T00:55:32.312Z,6.08
2023-03-16T00:56:34.729Z,6.43
2023-03-16T00:57:37.152Z,6.47
2023-03-16T00:58:40.655Z,6.65
2023-03-16T00:59:43.001Z,6.27
2023-03-16T01:00:46.071Z,6.37
2023-03-16T01:01:48.557Z,6.45
2023-03-16T01:02:50.900Z,6.42
2023-03-16T01:03:54.549Z,6.13
2023-03-16T01:04:56.911Z,6.10
2023-03-16T01:06:07.391Z,6.57
2023-03-16T01:07:13.450Z,6.40
2023-03-16T01:08:15.775Z,6.13
2023-03-16T01:09:18.125Z,6.52
2023-03-16T01:10:20.967Z,6.55
2023-03-16T01:11:23.405Z,6.38
2023-03-16T01:12:25.823Z,6.02
2023-03-16T01:13:28.540Z,6.23
2023-03-16T01:14:30.846Z,6.33
2023-03-16T01:15:34.916Z,6.22
2023-03-16T01:16:37.258Z,6.97
2023-03-16T01:17:39.665Z,6.43
2023-03-16T01:18:42.269Z,6.52
2023-03-16T01:19:45.970Z,6.62
2023-03-16T01:20:51.154Z,6.73
2023-03-16T01:21:53.729Z,7.05
2023-03-16T01:22:56.234Z,6.32
2023-03-16T01:23:58.581Z,6.52
2023-03-16T01:25:00.902Z,6.33
2023-03-16T01:26:03.299Z,6.60
2023-03-16T01:27:05.841Z,7.03
2023-03-16T01:28:08.261Z,7.18
2023-03-16T01:29:12.483Z,7.08
2023-03-16T01:30:14.923Z,6.48
2023-03-16T01:31:17.333Z,6.33
2023-03-16T01:32:19.674Z,6.98
2023-03-16T01:33:22.044Z,7.77
2023-03-16T01:34:24.440Z,7.27
2023-03-16T01:35:26.880Z,7.07
2023-03-16T01:36:29.241Z,7.13
2023-03-16T01:37:31.836Z,7.28
2023-03-16T01:38:34.557Z,7.07
2023-03-16T01:39:36.927Z,6.70
2023-03-16T01:40:39.313Z,7.30
2023-03-16T01:41:42.987Z,6.90
2023-03-16T01:42:50.313Z,6.53
2023-03-16T01:43:53.847Z,6.55
2023-03-16T01:45:05.769Z,7.22
2023-03-16T01:46:08.183Z,7.18
2023-03-16T01:47:12.191Z,7.15
2023-03-16T01:48:14.712Z,7.27
2023-03-16T01:49:29.493Z,7.55
2023-03-16T01:50:31.966Z,7.48
2023-03-16T01:51:44.497Z,7.48
2023-03-16T01:52:46.852Z,8.17
2023-03-16T01:53:53.127Z,8.43
2023-03-16T01:55:02.237Z,8.18
2023-03-16T01:56:08.471Z,8.20
2023-03-16T01:57:20.255Z,7.95
2023-03-16T01:58:22.701Z,7.97
2023-03-16T01:59:29.863Z,7.28
2023-03-16T02:00:33.427Z,7.67
2023-03-16T02:01:35.960Z,7.42
2023-03-16T02:02:40.833Z,7.37
2023-03-16T02:03:43.742Z,7.20
2023-03-16T02:05:02.024Z,7.38
2023-03-16T02:06:18.441Z,7.30
2023-03-16T02:07:24.762Z,6.55
2023-03-16T02:08:27.705Z,6.63
2023-03-16T02:09:30.440Z,7.18
2023-03-16T02:10:34.118Z,6.92
2023-03-16T02:11:36.899Z,7.25
2023-03-16T02:12:39.435Z,7.33
2023-03-16T02:13:43.620Z,7.80
2023-03-16T02:14:47.703Z,7.92
2023-03-16T02:15:51.873Z,7.98
2023-03-16T02:16:55.820Z,8.15
2023-03-16T02:18:00.237Z,8.60
2023-03-16T02:19:02.622Z,9.40
2023-03-16T02:20:16.354Z,14.05
2023-03-16T02:21:43.418Z,40.12
2023-03-16T02:22:48.359Z,45.97
2023-03-16T02:23:51.627Z,38.57
2023-03-16T02:24:54.911Z,31.98
2023-03-16T02:26:04.373Z,31.98
2023-03-16T02:27:10.459Z,41.30
2023-03-16T02:28:27.966Z,50.90
2023-03-16T02:29:30.329Z,56.67
2023-03-16T02:30:32.922Z,59.87
2023-03-16T02:31:35.718Z,66.85
2023-03-16T02:32:39.920Z,57.57
2023-03-16T02:33:44.076Z,61.45
2023-03-16T02:34:46.543Z,61.07
2023-03-16T02:35:49.076Z,51.75
2023-03-16T02:36:53.288Z,32.52
2023-03-16T02:37:55.700Z,24.25
2023-03-16T02:38:58.126Z,17.08
2023-03-16T02:40:16.444Z,13.52
2023-03-16T02:41:20.364Z,12.08
2023-03-16T02:42:24.171Z,12.22
2023-03-16T02:43:29.980Z,11.85
2023-03-16T02:44:35.674Z,13.25
2023-03-16T02:45:47.743Z,15.18
2023-03-16T02:46:52.757Z,16.03
2023-03-16T02:47:58.700Z,15.03
2023-03-16T02:49:36.900Z,15.48
2023-03-16T02:50:47.204Z,14.32
2023-03-16T02:51:49.580Z,14.67
2023-03-16T02:52:51.911Z,14.45
2023-03-16T02:53:54.264Z,13.73
2023-03-16T02:54:56.659Z,14.18
2023-03-16T02:55:59.116Z,13.60
2023-03-16T02:57:01.952Z,13.33
2023-03-16T02:58:04.318Z,13.93
2023-03-16T02:59:06.762Z,13.53
2023-03-16T03:00:14.507Z,13.43
2023-03-16T03:01:16.934Z,13.50
2023-03-16T03:02:19.393Z,13.50
2023-03-16T03:03:21.920Z,14.10
2023-03-16T03:04:24.764Z,14.75
2023-03-16T03:05:27.191Z,15.90
2023-03-16T03:06:29.653Z,16.40
2023-03-16T03:07:32.056Z,16.37
2023-03-16T03:08:34.440Z,17.30
2023-03-16T03:09:36.859Z,17.78
2023-03-16T03:10:39.505Z,15.57
2023-03-16T03:11:41.979Z,13.88
2023-03-16T03:12:44.444Z,13.48
2023-03-16T03:13:47.719Z,12.15
2023-03-16T03:14:50.152Z,11.85
2023-03-16T03:15:52.872Z,10.83
2023-03-16T03:16:55.470Z,10.83
2023-03-16T03:17:58.239Z,10.53
2023-03-16T03:19:00.640Z,10.37
2023-03-16T03:20:08.026Z,9.80
2023-03-16T03:21:10.619Z,9.10
2023-03-16T03:22:13.017Z,8.97
2023-03-16T03:23:15.960Z,8.33
2023-03-16T03:24:18.811Z,8.72
2023-03-16T03:25:22.497Z,8.30
2023-03-16T03:26:25.002Z,8.32
2023-03-16T03:27:27.460Z,8.18
2023-03-16T03:28:30.494Z,8.03
2023-03-16T03:29:36.226Z,7.87
2023-03-16T03:30:38.593Z,8.27
2023-03-16T03:31:41.027Z,8.00
2023-03-16T03:32:44.336Z,8.57
2023-03-16T03:33:46.759Z,8.47
2023-03-16T03:34:49.117Z,8.57
2023-03-16T03:35:58.449Z,9.00
2023-03-16T03:37:01.382Z,8.55
2023-03-16T03:38:03.697Z,9.38
2023-03-16T03:39:06.412Z,9.30
2023-03-16T03:40:10.813Z,9.63
2023-03-16T03:41:13.161Z,9.95
2023-03-16T03:42:15.574Z,9.57
2023-03-16T03:43:18.026Z,9.45
2023-03-16T03:44:24.045Z,9.22
2023-03-16T03:45:26.592Z,9.20
2023-03-16T03:46:29.192Z,9.00
2023-03-16T03:47:31.916Z,8.92
2023-03-16T03:48:34.382Z,9.40
2023-03-16T03:49:36.832Z,9.50
2023-03-16T03:50:40.708Z,9.70
2023-03-16T03:51:43.681Z,10.35
2023-03-16T03:52:46.052Z,10.37
2023-03-16T03:53:48.455Z,10.33
2023-03-16T03:54:51.554Z,10.88
2023-03-16T03:55:54.004Z,11.52
2023-03-16T03:56:56.360Z,11.07
2023-03-16T03:57:58.909Z,10.77
2023-03-16T03:59:01.314Z,11.58
2023-03-16T04:00:09.502Z,11.22
2023-03-16T04:01:11.829Z,12.98
2023-03-16T04:02:14.368Z,12.33
2023-03-16T04:03:17.842Z,11.92
2023-03-16T04:04:20.742Z,11.93
2023-03-16T04:05:25.995Z,14.83
2023-03-16T04:06:28.431Z,14.25
2023-03-16T04:07:31.166Z,12.95
2023-03-16T04:08:33.964Z,14.30
2023-03-16T04:09:36.408Z,15.85
2023-03-16T04:10:39.045Z,16.53
2023-03-16T04:11:41.470Z,15.85
2023-03-16T04:12:43.902Z,16.38
2023-03-16T04:13:46.597Z,16.85
2023-03-16T04:14:48.979Z,16.88
2023-03-16T04:16:00.154Z,15.57
2023-03-16T04:17:04.751Z,15.40
2023-03-16T04:18:07.278Z,15.58
2023-03-16T04:19:11.459Z,16.03
2023-03-16T04:20:15.598Z,15.85
2023-03-16T04:21:19.090Z,12.22
2023-03-16T04:22:23.462Z,11.53
2023-03-16T04:23:25.872Z,11.68
2023-03-16T04:24:28.284Z,12.52
2023-03-16T04:25:31.178Z,13.35
2023-03-16T04:26:34.370Z,15.08
2023-03-16T04:27:36.931Z,14.98
2023-03-16T04:28:39.951Z,19.17
2023-03-16T04:29:42.585Z,18.43
2023-03-16T04:30:45.045Z,14.87
2023-03-16T04:31:47.479Z,13.73
2023-03-16T04:32:49.988Z,12.83
2023-03-16T04:33:54.877Z,12.12
2023-03-16T04:34:57.723Z,11.73
2023-03-16T04:36:00.652Z,11.72
2023-03-16T04:37:03.064Z,11.78
2023-03-16T04:38:05.446Z,11.85
2023-03-16T04:39:08.905Z,12.10
2023-03-16T04:40:19.439Z,12.10
2023-03-16T04:41:21.931Z,12.15
2023-03-16T04:42:24.326Z,11.97
2023-03-16T04:43:26.778Z,11.65
2023-03-16T04:44:29.185Z,11.05
2023-03-16T04:45:32.930Z,11.43
2023-03-16T04:46:36.062Z,10.78
2023-03-16T04:47:39.197Z,10.90
2023-03-16T04:48:41.565Z,11.37
2023-03-16T04:49:43.965Z,11.97
2023-03-16T04:50:49.139Z,12.42
2023-03-16T04:51:51.559Z,11.38
2023-03-16T04:52:53.918Z,12.73
2023-03-16T04:53:56.372Z,12.08
2023-03-16T04:54:58.794Z,13.52
2023-03-16T04:56:01.256Z,13.25
2023-03-16T04:57:06.008Z,13.93
2023-03-16T04:58:08.414Z,13.87
2023-03-16T04:59:10.905Z,14.38
2023-03-16T05:00:19.068Z,14.75
2023-03-16T05:01:22.155Z,15.03
2023-03-16T05:02:24.647Z,15.35
2023-03-16T05:03:27.567Z,13.98
2023-03-16T05:04:29.987Z,14.17
2023-03-16T05:05:32.543Z,14.82
2023-03-16T05:06:35.040Z,15.73
2023-03-16T05:07:37.432Z,15.52
2023-03-16T05:08:39.830Z,15.47
2023-03-16T05:09:42.486Z,14.57
2023-03-16T05:10:44.967Z,14.63
2023-03-16T05:11:47.380Z,14.82
2023-03-16T05:12:49.759Z,14.52
2023-03-16T05:13:52.334Z,16.90
2023-03-16T05:14:54.755Z,18.92
2023-03-16T05:15:57.209Z,16.63
2023-03-16T05:16:59.673Z,17.55
2023-03-16T05:18:02.059Z,22.42
2023-03-16T05:19:05.357Z,20.73
2023-03-16T05:20:14.617Z,18.20
2023-03-16T05:23:57.254Z,15.12
2023-03-16T05:25:03.404Z,14.38
2023-03-16T05:26:06.073Z,14.33
2023-03-16T05:27:08.569Z,14.35
2023-03-16T05:28:10.982Z,14.00
2023-03-16T05:29:13.382Z,14.05
2023-03-16T05:30:18.076Z,13.98
2023-03-16T05:31:20.531Z,14.48
2023-03-16T05:32:23.045Z,14.68
2023-03-16T05:33:25.738Z,14.58
2023-03-16T05:34:28.159Z,14.88
2023-03-16T05:35:31.117Z,15.20
2023-03-16T05:36:35.969Z,17.72
2023-03-16T05:37:38.369Z,19.57
2023-03-16T05:38:40.740Z,20.10
2023-03-16T05:39:43.343Z,20.88
2023-03-16T05:40:46.321Z,20.20
2023-03-16T05:41:48.691Z,19.55
2023-03-16T05:42:56.138Z,19.70
2023-03-16T05:43:58.557Z,19.38
2023-03-16T05:45:01.809Z,19.28
2023-03-16T05:46:04.226Z,17.77
2023-03-16T05:47:06.880Z,17.63
2023-03-16T05:48:09.287Z,18.82
2023-03-16T05:49:13.075Z,17.95
2023-03-16T05:50:20.119Z,18.02
2023-03-16T05:51:22.514Z,18.22
2023-03-16T05:52:25.494Z,17.68
2023-03-16T05:53:29.072Z,17.57
2023-03-16T05:54:31.495Z,17.78
2023-03-16T05:55:33.884Z,18.28
2023-03-16T05:56:36.349Z,17.70
2023-03-16T05:57:38.769Z,18.75
2023-03-16T05:58:42.353Z,19.45
2023-03-16T05:59:44.800Z,19.22
2023-03-16T06:00:47.181Z,19.87
2023-03-16T06:01:52.011Z,19.12
2023-03-16T06:02:54.839Z,20.70
2023-03-16T06:04:07.475Z,21.80
2023-03-16T06:05:10.264Z,20.10
2023-03-16T06:06:13.725Z,19.83
2023-03-16T06:07:16.126Z,18.12
2023-03-16T06:08:18.487Z,17.27
2023-03-16T06:09:22.077Z,16.45
2023-03-16T06:10:26.701Z,16.82
2023-03-16T06:11:29.537Z,15.85
2023-03-16T06:12:32.051Z,17.52
2023-03-16T06:13:34.535Z,16.98
2023-03-16T06:14:53.167Z,15.48
2023-03-16T06:15:55.750Z,13.82
2023-03-16T06:16:58.717Z,13.88
2023-03-16T06:18:22.707Z,13.58
2023-03-16T06:19:25.685Z,13.00
2023-03-16T06:20:28.497Z,13.88
2023-03-16T06:21:31.406Z,24.63
2023-03-16T06:22:33.809Z,17.58
2023-03-16T06:23:36.221Z,20.50
2023-03-16T06:24:38.664Z,17.42
2023-03-16T06:25:41.124Z,17.03
2023-03-16T06:26:43.533Z,23.90
2023-03-16T06:27:45.977Z,27.15
2023-03-16T06:28:48.642Z,28.98
2023-03-16T06:29:51.027Z,25.73
2023-03-16T06:30:57.052Z,21.95
2023-03-16T06:31:59.505Z,20.73
2023-03-16T06:33:02.358Z,19.62
2023-03-16T06:34:04.744Z,18.08
2023-03-16T06:35:07.319Z,18.37
2023-03-16T06:36:09.783Z,16.25
2023-03-16T06:37:12.264Z,16.72
2023-03-16T06:38:14.648Z,21.83
2023-03-16T06:39:17.413Z,21.70
2023-03-16T06:40:20.066Z,18.27
2023-03-16T06:41:35.907Z,15.60
2023-03-16T06:42:39.352Z,14.77
2023-03-16T06:45:59.170Z,14.80
2023-03-16T06:47:02.169Z,17.43
2023-03-16T06:48:04.984Z,17.43
2023-03-16T06:49:07.794Z,16.13
2023-03-16T06:50:12.016Z,14.35
2023-03-16T06:51:16.697Z,12.87
2023-03-16T06:52:19.698Z,13.28
2023-03-16T06:53:22.866Z,12.08
2023-03-16T06:54:25.716Z,11.53
2023-03-16T06:55:28.610Z,11.02
2023-03-16T06:56:32.228Z,10.80
2023-03-16T06:57:35.178Z,12.38
2023-03-16T06:58:38.124Z,11.38
2023-03-16T06:59:41.623Z,11.73
2023-03-16T07:00:44.668Z,12.30
2023-03-16T07:01:47.884Z,11.08
2023-03-16T07:02:50.865Z,11.07
2023-03-16T07:03:55.105Z,11.97
2023-03-16T07:04:58.319Z,13.72
2023-03-16T07:06:02.046Z,13.73
2023-03-16T07:07:09.217Z,12.62
2023-03-16T07:08:14.145Z,12.32
2023-03-16T07:09:17.234Z,12.50
2023-03-16T07:10:22.757Z,13.53
2023-03-16T07:11:26.942Z,13.30
2023-03-16T07:12:37.610Z,14.27
2023-03-16T07:13:41.967Z,14.82
2023-03-16T07:14:45.086Z,14.12
2023-03-16T07:15:53.563Z,15.25
2023-03-16T07:16:57.894Z,14.62
2023-03-16T07:18:01.272Z,12.48
2023-03-16T07:19:19.379Z,11.58
2023-03-16T07:20:28.512Z,12.40
2023-03-16T07:21:40.406Z,13.42
2023-03-16T07:22:44.373Z,14.12
2023-03-16T07:23:53.528Z,12.47
2023-03-16T07:24:59.870Z,13.83
2023-03-16T07:26:10.914Z,13.30
2023-03-16T07:27:16.894Z,14.65
2023-03-16T07:28:23.542Z,13.52
2023-03-16T07:29:29.281Z,12.68
2023-03-16T07:30:33.106Z,12.90
2023-03-16T07:31:37.950Z,12.68
2023-03-16T07:32:43.600Z,11.73
2023-03-16T07:33:46.603Z,12.48
2023-03-16T07:34:58.117Z,14.32
2023-03-16T07:36:04.795Z,13.12
2023-03-16T07:37:10.059Z,12.90
2023-03-16T07:38:13.253Z,13.35
2023-03-16T07:39:18.124Z,13.28
2023-03-16T07:40:22.922Z,12.08
2023-03-16T07:41:26.072Z,12.00
2023-03-16T07:42:29.138Z,11.93
2023-03-16T07:43:32.249Z,12.53
2023-03-16T07:44:35.170Z,12.90
2023-03-16T07:45:38.183Z,10.92
2023-03-16T07:46:41.875Z,10.65
2023-03-16T07:47:45.148Z,10.72
2023-03-16T07:48:48.029Z,11.12
2023-03-16T07:49:51.144Z,11.83
2023-03-16T07:50:54.653Z,10.68
2023-03-16T07:51:57.524Z,10.82
2023-03-16T07:53:00.616Z,11.30
2023-03-16T07:54:04.688Z,11.22
2023-03-16T07:55:07.878Z,9.83
2023-03-16T07:56:10.655Z,10.28
2023-03-16T07:57:13.419Z,9.98
2023-03-16T07:58:15.876Z,10.30
2023-03-16T07:59:20.460Z,9.92
2023-03-16T08:00:24.868Z,10.17
2023-03-16T08:01:28.089Z,10.27
2023-03-16T08:02:31.616Z,9.58
2023-03-16T08:03:34.763Z,9.67
2023-03-16T08:04:37.656Z,9.80
2023-03-16T08:05:40.786Z,9.85
2023-03-16T08:06:43.856Z,11.07
2023-03-16T08:07:47.773Z,10.78
2023-03-16T08:08:50.772Z,11.03
2023-03-16T08:09:54.117Z,10.92
2023-03-16T08:10:57.031Z,10.47
2023-03-16T08:11:59.925Z,9.88
2023-03-16T08:13:05.131Z,10.17
2023-03-16T08:14:08.160Z,10.62
2023-03-16T08:15:12.178Z,10.22
2023-03-16T08:16:15.123Z,10.42
2023-03-16T08:17:18.021Z,10.48
2023-03-16T08:18:21.745Z,10.87
2023-03-16T08:19:25.532Z,10.15
2023-03-16T08:20:29.485Z,9.88
2023-03-16T08:21:34.174Z,10.65
2023-03-16T08:22:38.121Z,10.32
2023-03-16T08:23:41.037Z,10.82
2023-03-16T08:24:43.628Z,11.65
2023-03-16T08:25:46.353Z,10.95
2023-03-16T08:26:48.785Z,9.62
2023-03-16T08:27:51.326Z,10.47
2023-03-16T08:28:54.771Z,10.32
2023-03-16T08:29:57.376Z,8.53
2023-03-16T08:30:59.777Z,8.70
2023-03-16T08:32:03.124Z,10.02
2023-03-16T08:33:26.306Z,9.68
2023-03-16T08:34:28.887Z,8.85
2023-03-16T08:35:31.274Z,9.13
2023-03-16T08:36:54.210Z,8.55
2023-03-16T08:37:56.656Z,8.78
2023-03-16T08:39:06.951Z,9.22
2023-03-16T08:40:13.930Z,8.72
2023-03-16T08:41:17.491Z,8.53
2023-03-16T08:42:21.183Z,8.70
2023-03-16T08:43:24.129Z,8.73
2023-03-16T08:44:27.438Z,8.28
2023-03-16T08:45:30.077Z,8.60
2023-03-16T08:46:32.628Z,8.62
2023-03-16T08:47:35.464Z,7.90
2023-03-16T08:48:37.771Z,7.37
2023-03-16T08:49:41.411Z,7.70
2023-03-16T08:50:44.926Z,7.87
2023-03-16T08:51:47.408Z,7.88
2023-03-16T08:52:51.013Z,7.83
2023-03-16T08:53:54.185Z,6.85
2023-03-16T08:55:03.463Z,7.42
2023-03-16T08:56:08.832Z,7.83
2023-03-16T08:57:12.455Z,7.92
2023-03-16T08:58:15.450Z,9.00
2023-03-16T08:59:29.118Z,7.83
2023-03-16T09:00:32.844Z,7.37
2023-03-16T09:01:35.673Z,7.07
2023-03-16T09:02:39.507Z,7.37
2023-03-16T09:03:42.704Z,7.67
2023-03-16T09:04:46.558Z,7.50
2023-03-16T09:05:49.814Z,6.92
2023-03-16T09:07:05.702Z,6.78
2023-03-16T09:08:10.785Z,6.85
2023-03-16T09:09:14.053Z,6.87
2023-03-16T09:10:19.325Z,7.50
2023-03-16T09:11:23.505Z,7.57
2023-03-16T09:12:26.763Z,7.43
2023-03-16T09:13:31.031Z,7.50
2023-03-16T09:14:33.932Z,7.58
2023-03-16T09:15:39.251Z,7.23
2023-03-16T09:16:42.255Z,7.08
2023-03-16T09:17:46.188Z,7.57
2023-03-16T09:18:49.296Z,7.03
2023-03-16T09:19:53.979Z,7.18
2023-03-16T09:21:03.045Z,7.48
2023-03-16T09:22:05.705Z,6.83
2023-03-16T09:23:08.214Z,7.18
2023-03-16T09:24:10.788Z,7.18
2023-03-16T09:25:14.510Z,7.22
2023-03-16T09:26:16.890Z,7.77
2023-03-16T09:27:20.787Z,8.18
2023-03-16T09:28:23.863Z,7.87
2023-03-16T09:29:26.259Z,8.00
2023-03-16T09:30:28.869Z,8.63
2023-03-16T09:31:31.424Z,8.22
2023-03-16T09:32:35.263Z,8.65
2023-03-16T09:33:37.749Z,7.95
2023-03-16T09:34:40.353Z,7.98
2023-03-16T09:35:45.218Z,7.10
2023-03-16T09:36:47.609Z,7.12
2023-03-16T09:38:05.312Z,7.13
2023-03-16T09:39:08.890Z,6.68
2023-03-16T09:40:27.716Z,6.12
2023-03-16T09:41:44.713Z,6.12
2023-03-16T09:42:55.408Z,6.95
2023-03-16T09:44:12.713Z,8.38
2023-03-16T09:45:38.779Z,9.42
2023-03-16T09:46:46.305Z,7.15
2023-03-16T09:47:50.958Z,7.03
2023-03-16T09:48:55.960Z,7.62
2023-03-16T09:50:01.605Z,5.87
2023-03-16T09:51:06.911Z,6.57
2023-03-16T09:52:17.193Z,6.38
2023-03-16T09:53:32.146Z,6.45
2023-03-16T09:54:46.518Z,6.73
2023-03-16T09:55:53.750Z,7.47
2023-03-16T09:57:01.772Z,8.87
2023-03-16T09:58:17.489Z,6.80
2023-03-16T09:59:20.204Z,6.70
2023-03-16T10:00:25.763Z,6.70
2023-03-16T10:01:37.245Z,6.35
2023-03-16T10:02:47.384Z,6.62
2023-03-16T10:03:49.967Z,13.00
2023-03-16T10:05:09.710Z,10.97
2023-03-16T10:06:17.022Z,8.63
2023-03-16T10:07:30.800Z,6.93
2023-03-16T10:08:38.910Z,6.60
2023-03-16T10:09:59.288Z,5.98
2023-03-16T10:11:13.926Z,12.15
2023-03-16T10:12:16.516Z,8.63
2023-03-16T10:13:33.217Z,10.57
2023-03-16T10:14:49.842Z,8.88
2023-03-16T10:15:54.153Z,8.60
2023-03-16T10:16:59.448Z,8.03
2023-03-16T10:18:16.506Z,8.18
2023-03-16T10:19:23.428Z,6.40
2023-03-16T10:20:28.480Z,6.47
2023-03-16T10:21:34.389Z,7.88
2023-03-16T10:22:43.006Z,7.03
2023-03-16T10:23:47.051Z,6.42
2023-03-16T10:24:57.042Z,5.93
2023-03-16T10:25:59.455Z,6.32
2023-03-16T10:27:04.835Z,6.65
2023-03-16T10:28:07.541Z,6.50
2023-03-16T10:29:15.061Z,6.02
2023-03-16T10:30:30.230Z,5.40
2023-03-16T10:31:35.214Z,6.03
2023-03-16T10:32:38.501Z,6.37
2023-03-16T10:36:53.308Z,5.70
2023-03-16T10:37:57.297Z,5.20
2023-03-16T10:39:01.861Z,5.48
2023-03-16T10:40:12.825Z,5.40
2023-03-16T10:41:23.139Z,5.82
2023-03-16T10:42:27.173Z,5.62
2023-03-16T10:43:30.012Z,5.58
2023-03-16T10:44:32.373Z,5.92
2023-03-16T10:45:36.020Z,5.90
2023-03-16T10:46:40.228Z,5.67
2023-03-16T10:47:42.907Z,5.42
2023-03-16T10:48:59.854Z,4.85
2023-03-16T10:50:20.787Z,5.53
2023-03-16T10:51:27.664Z,5.67
2023-03-16T10:52:46.967Z,6.25
2023-03-16T10:53:50.790Z,6.47
2023-03-16T10:54:57.672Z,6.03
2023-03-16T10:56:05.719Z,5.62
2023-03-16T10:57:35.356Z,5.10
2023-03-16T10:58:42.651Z,5.25
2023-03-16T10:59:49.731Z,5.05
2023-03-16T11:00:53.726Z,5.33
2023-03-16T11:01:57.233Z,5.57
2023-03-16T11:02:59.988Z,5.15
2023-03-16T11:04:02.742Z,5.12
2023-03-16T11:05:32.978Z,5.05
2023-03-16T11:06:35.428Z,4.92
2023-03-16T11:07:39.331Z,4.95
2023-03-16T11:08:41.947Z,4.83
2023-03-16T11:09:45.482Z,5.32
2023-03-16T11:10:59.374Z,5.18
2023-03-16T11:12:14.179Z,5.78
2023-03-16T11:13:20.872Z,5.42
2023-03-16T11:14:28.414Z,5.95
2023-03-16T11:15:37.967Z,5.67
2023-03-16T11:17:02.341Z,5.17
2023-03-16T11:18:05.091Z,5.00
2023-03-16T11:19:29.244Z,5.35
2023-03-16T11:20:34.245Z,5.45
2023-03-16T11:21:55.093Z,5.12
2023-03-16T11:27:30.015Z,5.23
2023-03-16T11:28:38.808Z,5.35
2023-03-16T11:29:46.645Z,4.83
2023-03-16T11:30:55.514Z,5.18
2023-03-16T11:32:06.323Z,5.13
2023-03-16T11:33:11.248Z,5.05
2023-03-16T11:34:16.303Z,5.12
2023-03-16T11:35:21.982Z,5.38
2023-03-16T11:36:39.034Z,5.52
2023-03-16T11:38:20.847Z,4.90
2023-03-16T11:39:50.143Z,5.27
2023-03-16T11:41:01.564Z,4.90
2023-03-16T11:42:31.033Z,5.28
2023-03-16T11:43:52.954Z,4.98
2023-03-16T11:45:03.779Z,5.07
2023-03-16T11:46:23.479Z,4.42
2023-03-16T11:47:56.093Z,4.55
2023-03-16T11:49:13.661Z,4.50
2023-03-16T11:50:30.854Z,4.30
2023-03-16T11:51:49.022Z,4.32
2023-03-16T11:53:11.613Z,4.45
2023-03-16T11:54:26.062Z,4.62
2023-03-16T11:55:48.639Z,4.95
2023-03-16T11:56:58.156Z,6.47
2023-03-16T11:58:09.082Z,4.58
2023-03-16T11:59:46.256Z,4.77
2023-03-16T12:01:08.729Z,4.72
2023-03-16T12:02:25.677Z,4.33
2023-03-16T12:03:36.986Z,4.88
2023-03-16T12:04:46.603Z,4.80
2023-03-16T12:05:58.960Z,6.13
2023-03-16T12:07:11.467Z,6.68
2023-03-16T12:08:53.767Z,6.53
2023-03-16T12:10:22.446Z,6.20
2023-03-16T12:11:34.362Z,5.60
2023-03-16T12:13:30.949Z,6.18
2023-03-16T12:15:01.695Z,6.60
2023-03-16T12:16:46.405Z,11.03
2023-03-16T12:17:55.643Z,6.23
2023-03-16T12:19:04.816Z,5.12
2023-03-16T12:20:14.037Z,5.22
2023-03-16T12:21:27.300Z,6.05
2023-03-16T12:22:37.501Z,6.22
2023-03-16T12:23:44.213Z,5.85
2023-03-16T12:24:49.771Z,5.42
2023-03-16T12:25:53.239Z,5.20
2023-03-16T12:26:57.533Z,5.18
2023-03-16T12:28:05.009Z,5.18
2023-03-16T12:29:17.088Z,5.45
2023-03-16T12:30:36.517Z,6.42
2023-03-16T12:31:41.918Z,5.63
2023-03-16T12:33:02.273Z,5.65
2023-03-16T12:34:21.040Z,5.38
2023-03-16T12:35:42.823Z,5.32
2023-03-16T12:37:06.638Z,5.25
2023-03-16T12:38:28.707Z,4.97
2023-03-16T12:39:33.902Z,5.18
2023-03-16T12:40:48.273Z,4.78
2023-03-16T12:42:02.730Z,4.87
2023-03-16T12:43:08.407Z,4.57
2023-03-16T12:44:40.608Z,4.98
2023-03-16T12:46:00.122Z,5.07
2023-03-16T12:47:18.036Z,4.87
2023-03-16T12:48:31.523Z,5.37
2023-03-16T12:49:36.902Z,5.15
2023-03-16T12:51:00.516Z,5.18
2023-03-16T12:52:10.816Z,5.20
2023-03-16T12:53:26.897Z,5.20
2023-03-16T12:54:30.048Z,5.37
2023-03-16T12:55:39.213Z,4.82
2023-03-16T12:56:47.084Z,4.53
2023-03-16T12:57:51.648Z,4.43
2023-03-16T12:58:57.349Z,4.73
2023-03-16T13:01:13.169Z,5.00
2023-03-16T13:02:22.286Z,4.75
2023-03-16T13:03:25.946Z,4.65
2023-03-16T13:04:34.090Z,4.75
2023-03-16T13:05:38.846Z,4.72
2023-03-16T13:06:48.452Z,5.47
2023-03-16T13:07:56.502Z,5.17
2023-03-16T13:09:01.346Z,5.10
2023-03-16T13:10:16.678Z,4.48
2023-03-16T13:11:20.776Z,5.08
2023-03-16T13:12:31.042Z,5.08
2023-03-16T13:13:36.686Z,4.45
2023-03-16T13:14:44.619Z,4.37
2023-03-16T13:15:47.807Z,4.42
2023-03-16T13:16:55.532Z,4.73
2023-03-16T13:18:19.140Z,5.07
2023-03-16T13:19:29.952Z,4.82
2023-03-16T13:20:35.054Z,4.72
2023-03-16T13:21:41.120Z,4.97
2023-03-16T13:22:50.971Z,4.43
2023-03-16T13:24:02.185Z,4.58
2023-03-16T13:25:28.917Z,4.27
2023-03-16T13:26:40.199Z,3.95
2023-03-16T13:28:12.168Z,4.00
2023-03-16T13:29:20.789Z,3.65
2023-03-16T13:30:26.867Z,3.75
2023-03-16T13:31:37.290Z,4.00
2023-03-16T13:32:40.116Z,3.72
2023-03-16T13:33:42.504Z,3.82
2023-03-16T13:34:50.759Z,4.10
2023-03-16T13:35:55.311Z,3.87
2023-03-16T13:36:59.691Z,3.60
2023-03-16T13:38:06.174Z,3.87
2023-03-16T13:39:22.751Z,3.80
2023-03-16T13:40:27.827Z,3.60
2023-03-16T13:41:31.010Z,3.88
2023-03-16T13:42:34.150Z,3.67
2023-03-16T13:43:39.893Z,3.62
2023-03-16T13:44:42.880Z,3.45
2023-03-16T13:45:45.397Z,3.57
2023-03-16T13:46:49.660Z,3.32
2023-03-16T13:47:52.070Z,3.17
2023-03-16T13:48:54.576Z,3.17
2023-03-16T13:49:59.129Z,3.53
2023-03-16T13:51:01.742Z,3.25
2023-03-16T13:52:05.504Z,3.40
2023-03-16T13:53:24.677Z,3.33
2023-03-16T13:54:32.596Z,3.02
2023-03-16T13:55:37.119Z,2.67
2023-03-16T13:56:40.285Z,2.85
2023-03-16T13:57:44.098Z,2.98
2023-03-16T13:58:50.566Z,2.72
2023-03-16T14:00:02.626Z,3.10
2023-03-16T14:01:14.489Z,3.05
2023-03-16T14:02:23.227Z,3.07
2023-03-16T14:03:33.075Z,3.35
2023-03-16T14:04:35.508Z,3.47
2023-03-16T14:05:38.958Z,3.10
2023-03-16T14:06:41.489Z,2.92
2023-03-16T14:07:47.451Z,3.12
2023-03-16T14:08:54.047Z,3.33
2023-03-16T14:09:59.165Z,3.17
2023-03-16T14:11:03.818Z,2.98
2023-03-16T14:12:06.355Z,3.05
2023-03-16T14:13:22.107Z,3.03
2023-03-16T14:14:36.978Z,3.20
2023-03-16T14:15:40.768Z,2.78
2023-03-16T14:16:43.337Z,3.00
2023-03-16T14:17:45.806Z,3.00
2023-03-16T14:18:54.743Z,3.05
2023-03-16T14:19:59.709Z,2.83
2023-03-16T14:21:07.986Z,2.70
2023-03-16T14:22:14.016Z,2.97
2023-03-16T14:23:24.570Z,3.27
2023-03-16T14:24:41.091Z,3.72
2023-03-16T14:25:44.222Z,3.58
2023-03-16T14:26:47.960Z,3.30
2023-03-16T14:27:58.241Z,3.40
2023-03-16T14:29:18.758Z,3.35
2023-03-16T14:30:26.258Z,3.10
2023-03-16T14:31:46.799Z,3.30
2023-03-16T14:33:01.356Z,3.33
2023-03-16T14:34:08.877Z,3.18
2023-03-16T14:35:13.813Z,3.22
2023-03-16T14:36:18.914Z,3.15
2023-03-16T14:37:22.118Z,2.97
2023-03-16T14:38:36.225Z,3.23
2023-03-16T14:39:40.581Z,2.93
2023-03-16T14:40:54.042Z,2.85
2023-03-16T14:41:56.592Z,3.22
2023-03-16T14:43:02.115Z,2.88
2023-03-16T14:44:04.982Z,3.07